Time;durP1;ratioP1;P1;durP2;ratioP2;P2;SDS_P1;SDS_P2;PMS_P1;PMS_P2;Temp;Humidity;BMP_temperature;BMP_pressure;BME280_temperature;BME280_humidity;BME280_pressure;Samples;Min_cycle;Max_cycle;Signal;HPM_P1;HPM_P2
2020/12/05 00:01:05;;;;;;;36.65;20.80;;;;;;;7.33;68.97;99171.09;4392775;32;35320;-45
2020/12/05 00:03:32;;;;;;;38.67;20.65;;;;;;;7.30;69.13;99164.19;4407847;32;34084;-47
2020/12/05 00:06:01;;;;;;;36.28;20.67;;;;;;;7.35;69.20;99172.72;4393799;32;33535;-46
2020/12/05 00:08:28;;;;;;;40.63;20.25;;;;;;;7.27;69.58;99163.47;4407712;32;35628;-46
2020/12/05 00:10:56;;;;;;;41.03;20.15;;;;;;;7.63;67.99;99161.09;4407323;32;33785;-47
2020/12/05 00:13:23;;;;;;;40.05;20.30;;;;;;;7.58;67.97;99157.81;4407716;32;33852;-46
2020/12/05 00:15:51;;;;;;;38.95;21.85;;;;;;;7.39;68.96;99173.47;4407598;32;33730;-47
2020/12/05 00:18:18;;;;;;;36.53;19.45;;;;;;;7.36;68.83;99171.00;4407566;32;34999;-46
2020/12/05 00:20:45;;;;;;;42.75;21.35;;;;;;;7.43;68.48;99173.28;4393893;32;33708;-45
2020/12/05 00:23:13;;;;;;;38.22;21.35;;;;;;;7.22;69.23;99165.44;4407782;32;33228;-48
2020/12/05 00:25:41;;;;;;;39.28;20.73;;;;;;;6.82;70.51;99169.59;4387173;32;33726;-46
2020/12/05 00:28:08;;;;;;;36.83;20.12;;;;;;;6.91;70.17;99162.22;4405814;32;34905;-45
2020/12/05 00:30:35;;;;;;;39.65;19.42;;;;;;;7.18;69.41;99159.44;4407231;32;34511;-45
2020/12/05 00:33:03;;;;;;;35.47;20.45;;;;;;;7.44;68.26;99150.50;4393683;32;33887;-47
2020/12/05 00:35:30;;;;;;;38.00;19.83;;;;;;;7.03;69.27;99160.06;4378695;32;33596;-46
2020/12/05 00:37:58;;;;;;;40.55;20.95;;;;;;;7.23;68.98;99162.75;4395189;32;34610;-46
2020/12/05 00:40:25;;;;;;;41.15;21.33;;;;;;;7.31;68.57;99165.91;4407218;32;33990;-47
2020/12/05 00:42:52;;;;;;;45.17;20.90;;;;;;;7.09;69.31;99165.91;4403640;32;33984;-44
2020/12/05 00:45:20;;;;;;;36.58;19.27;;;;;;;6.98;70.13;99177.72;4396489;32;34342;-46
2020/12/05 00:47:47;;;;;;;37.95;20.25;;;;;;;6.84;70.25;99181.78;4399596;32;33430;-46
2020/12/05 00:50:14;;;;;;;37.70;20.20;;;;;;;6.39;72.10;99181.72;4398371;32;34135;-48
2020/12/05 00:52:42;;;;;;;40.40;20.33;;;;;;;6.33;72.48;99180.16;4407357;32;34013;-46
2020/12/05 00:55:10;;;;;;;41.13;20.65;;;;;;;6.82;70.93;99186.19;4399605;32;34434;-44
2020/12/05 00:57:37;;;;;;;39.33;20.60;;;;;;;6.47;71.88;99189.31;4387749;32;35936;-45
2020/12/05 01:00:06;;;;;;;40.53;21.83;;;;;;;6.57;71.44;99198.53;4406643;32;35082;-45
2020/12/05 01:02:35;;;;;;;38.30;20.25;;;;;;;6.57;71.40;99198.53;4406839;32;33867;-47
2020/12/05 01:05:03;;;;;;;40.28;21.37;;;;;;;6.96;70.22;99195.31;4407299;32;33673;-46
2020/12/05 01:07:32;;;;;;;39.35;19.67;;;;;;;6.61;71.02;99197.53;4392862;32;34885;-46
2020/12/05 01:10:00;;;;;;;39.25;20.15;;;;;;;7.00;69.62;99191.66;4406904;32;34062;-45
2020/12/05 01:12:27;;;;;;;39.60;21.12;;;;;;;6.78;70.41;99202.97;4406955;32;32654;-47
2020/12/05 01:15:00;;;;;;;41.63;21.65;;;;;;;6.81;70.54;99207.25;4407203;32;34371;-46
2020/12/05 01:17:32;;;;;;;40.45;20.77;;;;;;;6.83;70.56;99211.53;4394530;32;34937;-44
2020/12/05 01:19:59;;;;;;;40.22;20.83;;;;;;;6.78;70.61;99220.50;4407149;32;33699;-46
2020/12/05 01:22:27;;;;;;;41.42;20.70;;;;;;;7.13;69.50;99209.50;4406946;32;34060;-46
2020/12/05 01:24:55;;;;;;;42.90;20.88;;;;;;;7.08;69.68;99210.59;4403664;32;33881;-46
2020/12/05 01:27:22;;;;;;;37.33;19.77;;;;;;;6.82;70.87;99215.06;4406728;32;35712;-47
2020/12/05 01:29:49;;;;;;;38.85;21.08;;;;;;;7.16;69.54;99213.78;4407089;32;33922;-44
2020/12/05 01:32:17;;;;;;;39.90;20.83;;;;;;;6.89;70.25;99211.31;4406730;32;34138;-45
2020/12/05 01:34:44;;;;;;;38.35;18.50;;;;;;;6.86;70.57;99205.31;4393488;32;33704;-45
2020/12/05 01:37:11;;;;;;;42.65;19.95;;;;;;;6.87;70.47;99200.00;4406932;32;34771;-47
2020/12/05 01:39:38;;;;;;;38.85;19.98;;;;;;;6.67;71.26;99205.16;4407157;32;34045;-45
2020/12/05 01:42:06;;;;;;;36.75;20.77;;;;;;;6.82;70.57;99206.34;4406596;32;34167;-46
2020/12/05 01:44:33;;;;;;;37.47;20.50;;;;;;;6.68;71.27;99201.63;4393562;32;33825;-44
2020/12/05 01:47:01;;;;;;;40.83;20.73;;;;;;;6.58;71.85;99200.25;4392922;32;35857;-45
2020/12/05 01:49:29;;;;;;;39.63;20.52;;;;;;;6.91;70.30;99190.25;4393074;32;34566;-46
2020/12/05 01:51:57;;;;;;;40.10;20.62;;;;;;;6.98;70.18;99199.63;4392927;32;32825;-46
2020/12/05 01:54:25;;;;;;;36.72;20.23;;;;;;;6.77;70.84;99190.78;4406896;32;33871;-48
2020/12/05 01:57:03;;;;;;;41.58;20.92;;;;;;;6.88;70.31;99191.25;4393096;32;35788;-46
2020/12/05 01:59:31;;;;;;;39.42;21.00;;;;;;;7.25;69.35;99192.41;4387937;32;34467;-50
2020/12/05 02:02:03;;;;;;;38.85;21.60;;;;;;;6.60;71.45;99195.81;4392653;32;33477;-46
2020/12/05 02:04:44;;;;;;;44.25;22.05;;;;;;;7.03;70.32;99192.41;4404535;32;34683;-47
2020/12/05 02:07:15;;;;;;;39.33;20.23;;;;;;;6.66;71.69;99192.97;4393131;32;35011;-48
2020/12/05 02:09:47;;;;;;;38.22;20.27;;;;;;;6.76;71.06;99188.22;4406423;32;34947;-46
2020/12/05 02:12:14;;;;;;;;;;;;;;;6.75;71.20;99186.50;4406790;32;34340;-46
2020/12/05 02:14:42;;;;;;;42.72;20.02;;;;;;;7.01;70.27;99194.22;4407176;32;33646;-45
2020/12/05 02:17:09;;;;;;;43.47;21.48;;;;;;;6.59;72.00;99201.94;4390442;32;34781;-47
2020/12/05 02:19:47;;;;;;;46.75;20.85;;;;;;;6.38;72.98;99200.97;4393640;32;34165;-47
2020/12/05 02:22:19;;;;;;;38.38;19.48;;;;;;;6.61;72.06;99200.16;4394482;32;34350;-44
2020/12/05 02:24:47;;;;;;;38.25;21.52;;;;;;;6.72;71.41;99199.75;4393130;32;33569;-46
2020/12/05 02:27:15;;;;;;;43.97;22.17;;;;;;;6.89;71.03;99195.56;4393777;32;34814;-48
2020/12/05 02:29:42;;;;;;;40.40;20.80;;;;;;;6.98;70.62;99198.72;4394760;32;35416;-46
2020/12/05 02:32:09;;;;;;;43.60;22.58;;;;;;;6.42;72.59;99199.97;4407976;32;33271;-47
2020/12/05 02:34:37;;;;;;;40.92;22.02;;;;;;;6.93;70.75;99196.28;4408394;32;33412;-44
2020/12/05 02:37:07;;;;;;;37.42;19.73;;;;;;;7.07;70.07;99190.50;4408027;32;35320;-45
2020/12/05 02:39:35;;;;;;;38.67;21.55;;;;;;;6.89;70.58;99198.19;4395072;32;34884;-47
2020/12/05 02:42:03;;;;;;;36.25;19.77;;;;;;;6.91;70.59;99198.13;4389864;32;33919;-46
2020/12/05 02:44:30;;;;;;;35.88;20.05;;;;;;;6.64;71.50;99202.63;4404457;32;34417;-46
2020/12/05 02:47:00;;;;;;;41.05;20.50;;;;;;;6.78;70.84;99197.72;4396643;32;35810;-46
2020/12/05 02:49:27;;;;;;;41.03;20.92;;;;;;;6.87;70.63;99201.78;4408570;32;34198;-48
2020/12/05 02:51:54;;;;;;;42.67;22.48;;;;;;;6.91;70.35;99198.97;4407709;32;34132;-46
2020/12/05 02:54:21;;;;;;;39.53;20.50;;;;;;;6.98;70.17;99212.72;4408159;32;34842;-46
2020/12/05 02:56:50;;;;;;;37.75;20.30;;;;;;;7.14;69.63;99205.97;4387772;32;35832;-46
2020/12/05 02:59:17;;;;;;;37.65;20.95;;;;;;;6.99;70.26;99210.97;4383307;32;34483;-44
2020/12/05 03:01:44;;;;;;;39.80;20.48;;;;;;;6.51;72.11;99214.50;4400265;32;34076;-48
2020/12/05 03:04:11;;;;;;;35.78;19.52;;;;;;;7.15;69.91;99212.06;4401280;32;33638;-46
2020/12/05 03:06:38;;;;;;;41.10;20.12;;;;;;;7.30;69.41;99210.59;4401637;32;34051;-49
2020/12/05 03:09:05;;;;;;;36.42;20.90;;;;;;;7.24;69.52;99211.72;4398387;32;32728;-45
2020/12/05 03:11:33;;;;;;;35.45;19.15;;;;;;;6.76;71.56;99223.19;4394512;32;33517;-48
2020/12/05 03:14:00;;;;;;;38.20;20.90;;;;;;;6.66;72.45;99227.06;4407742;32;34580;-45
2020/12/05 03:16:27;;;;;;;40.45;19.77;;;;;;;7.08;70.92;99231.63;4386271;32;34616;-48
2020/12/05 03:18:55;;;;;;;42.83;20.37;;;;;;;7.00;71.00;99233.66;4385823;32;34291;-46
2020/12/05 03:21:22;;;;;;;41.30;21.00;;;;;;;7.17;70.56;99218.13;4402823;32;33289;-52
2020/12/05 03:23:49;;;;;;;39.28;20.48;;;;;;;7.07;71.25;99222.00;4407660;32;33558;-46
2020/12/05 03:26:17;;;;;;;39.03;20.23;;;;;;;7.10;71.04;99219.25;4397593;32;34768;-48
2020/12/05 03:28:44;;;;;;;35.55;20.95;;;;;;;6.88;71.83;99219.22;4403990;32;34112;-47
2020/12/05 03:31:34;;;;;;;38.65;20.65;;;;;;;6.90;71.82;99218.25;4407242;32;33426;-48
2020/12/05 03:34:04;;;;;;;39.00;20.25;;;;;;;7.00;71.50;99233.66;4393093;32;34251;-46
2020/12/05 03:36:31;;;;;;;36.75;19.80;;;;;;;6.93;72.06;99220.78;4407784;32;34900;-47
2020/12/05 03:38:58;;;;;;;41.03;20.90;;;;;;;6.87;72.07;99223.63;4394269;32;34480;-48
2020/12/05 03:41:26;;;;;;;36.72;19.05;;;;;;;6.86;72.24;99232.41;4407743;32;33244;-48
2020/12/05 03:43:56;;;;;;;38.83;19.62;;;;;;;7.09;71.16;99220.19;4407345;32;34502;-48
2020/12/05 03:46:23;;;;;;;39.75;19.42;;;;;;;6.81;72.14;99218.59;4394541;32;35694;-46
2020/12/05 03:48:51;;;;;;;36.28;19.70;;;;;;;7.09;71.42;99228.06;4394038;32;34363;-48
2020/12/05 03:51:18;;;;;;;35.35;19.65;;;;;;;7.04;71.38;99232.63;4407755;32;32867;-46
2020/12/05 03:53:45;;;;;;;33.15;19.15;;;;;;;7.09;71.34;99233.31;4393907;32;34498;-51
2020/12/05 03:56:12;;;;;;;36.00;19.87;;;;;;;7.06;71.65;99230.78;4407420;32;34935;-52
2020/12/05 03:58:39;;;;;;;38.08;20.25;;;;;;;7.24;70.88;99213.47;4406667;32;34278;-52
2020/12/05 04:01:07;;;;;;;36.08;19.58;;;;;;;7.27;70.36;99211.59;4397263;32;33398;-50
2020/12/05 04:03:34;;;;;;;41.20;21.12;;;;;;;6.94;72.26;99224.25;4394314;32;33862;-54
2020/12/05 04:06:01;;;;;;;42.45;21.75;;;;;;;6.34;74.55;99223.81;4407338;32;34701;-52
2020/12/05 04:08:29;;;;;;;44.00;20.42;;;;;;;6.85;72.66;99225.47;4407586;32;34272;-47
2020/12/05 04:10:57;;;;;;;36.67;19.55;;;;;;;7.09;71.61;99226.28;4407345;32;33175;-48
2020/12/05 04:13:24;;;;;;;36.03;18.73;;;;;;;6.81;72.30;99229.09;4407843;32;33730;-45
2020/12/05 04:15:51;;;;;;;37.97;19.67;;;;;;;6.81;72.59;99226.47;4398773;32;34791;-47
2020/12/05 04:18:19;;;;;;;41.08;21.42;;;;;;;6.89;72.12;99228.84;4401697;32;34071;-47
2020/12/05 04:20:46;;;;;;;38.08;20.00;;;;;;;7.04;71.68;99224.75;4398682;32;33166;-47
2020/12/05 04:23:14;;;;;;;37.75;19.40;;;;;;;6.82;72.71;99236.06;4401261;32;34740;-46
2020/12/05 04:25:41;;;;;;;36.33;19.23;;;;;;;7.41;70.14;99229.44;4390369;32;35634;-46
2020/12/05 04:28:09;;;;;;;40.83;21.48;;;;;;;6.68;72.63;99238.34;4405341;32;34381;-46
2020/12/05 04:30:36;;;;;;;40.80;21.15;;;;;;;6.74;72.68;99238.13;4407509;32;33250;-47
2020/12/05 04:33:03;;;;;;;45.58;21.83;;;;;;;6.86;72.24;99245.53;4406677;32;33795;-46
2020/12/05 04:35:30;;;;;;;38.25;20.33;;;;;;;6.86;72.10;99245.53;4393422;32;35531;-43
2020/12/05 04:37:57;;;;;;;38.88;19.95;;;;;;;7.43;70.01;99241.56;4407354;32;34003;-45
2020/12/05 04:40:26;;;;;;;39.50;20.65;;;;;;;7.05;71.49;99242.22;4407336;32;34114;-45
2020/12/05 04:42:53;;;;;;;40.25;19.40;;;;;;;6.91;71.89;99246.22;4407323;32;34414;-48
2020/12/05 04:45:20;;;;;;;36.88;20.23;;;;;;;6.62;73.10;99254.31;4407281;32;35063;-45
2020/12/05 04:47:47;;;;;;;36.90;20.10;;;;;;;6.91;72.15;99258.47;4393462;32;34270;-46
2020/12/05 04:50:15;;;;;;;36.90;17.85;;;;;;;6.86;72.04;99250.78;4393746;32;33480;-46
2020/12/05 04:52:50;;;;;;;39.22;20.27;;;;;;;6.91;71.78;99256.72;4380884;32;34048;-47
2020/12/05 04:55:23;;;;;;;38.08;19.52;;;;;;;6.84;71.96;99255.25;4393614;32;35634;-48
2020/12/05 04:57:59;;;;;;;36.65;19.55;;;;;;;6.79;72.22;99254.56;4392837;32;34936;-46
2020/12/05 05:00:27;;;;;;;38.95;21.27;;;;;;;6.97;71.42;99263.50;4407107;32;33388;-46
2020/12/05 05:02:58;;;;;;;37.15;18.87;;;;;;;6.52;72.72;99258.19;4407374;32;33723;-48
2020/12/05 05:05:26;;;;;;;35.72;18.45;;;;;;;7.03;70.95;99259.81;4406928;32;35023;-47
2020/12/05 05:07:55;;;;;;;35.38;19.80;;;;;;;7.38;69.43;99263.69;4386655;32;34909;-46
2020/12/05 05:10:26;;;;;;;38.58;20.15;;;;;;;6.65;71.78;99269.97;4399160;32;34172;-48
2020/12/05 05:13:06;;;;;;;43.45;22.48;;;;;;;6.26;73.46;99267.81;4401330;32;33439;-46
2020/12/05 05:15:33;;;;;;;36.97;20.25;;;;;;;6.36;73.05;99278.81;4387461;32;34997;-49
2020/12/05 05:21:51;;;;;;;34.33;18.98;;;;;;;6.72;71.71;99275.81;4383038;27;33667;-43
2020/12/05 05:24:20;;;;;;;36.05;20.62;;;;;;;6.37;72.81;99280.56;4358853;32;33945;-43
2020/12/05 05:26:58;;;;;;;38.13;20.33;;;;;;;6.22;73.44;99291.56;4356529;32;35593;-47
2020/12/05 05:29:28;;;;;;;36.05;21.23;;;;;;;6.57;72.22;99292.97;4372189;32;34183;-45
2020/12/05 05:32:03;;;;;;;36.53;20.73;;;;;;;6.41;72.65;99296.12;4366985;32;32970;-43
2020/12/05 05:34:31;;;;;;;41.13;19.80;;;;;;;6.47;72.27;99291.59;4371633;32;33540;-43
2020/12/05 05:36:58;;;;;;;37.90;20.50;;;;;;;6.64;71.80;99284.81;4360108;32;35020;-43
2020/12/05 05:39:26;;;;;;;35.55;20.37;;;;;;;7.00;70.26;99281.75;4370654;32;34360;-44
2020/12/05 05:41:55;;;;;;;36.20;20.08;;;;;;;6.44;72.64;99289.91;4370570;32;33787;-43
2020/12/05 05:44:27;;;;;;;38.53;21.02;;;;;;;6.67;71.63;99289.09;4358937;32;33794;-42
2020/12/05 05:46:56;;;;;;;35.55;20.88;;;;;;;6.55;72.01;99295.66;4358174;32;34788;-42
2020/12/05 05:49:24;;;;;;;46.47;21.00;;;;;;;6.58;71.62;99299.94;4360091;32;35117;-44
2020/12/05 05:51:52;;;;;;;39.63;21.30;;;;;;;6.93;70.57;99302.16;4370971;32;33780;-44
2020/12/05 05:54:21;;;;;;;41.30;21.50;;;;;;;6.63;71.53;99314.59;4360800;32;33488;-43
2020/12/05 05:57:13;;;;;;;39.17;20.95;;;;;;;6.51;72.35;99324.66;4358129;32;34995;-44
2020/12/05 05:59:42;;;;;;;39.78;21.20;;;;;;;6.37;73.43;99320.75;4295599;33;32924;-43
2020/12/05 06:02:14;;;;;;;42.05;21.20;;;;;;;6.33;73.76;99328.78;4309499;33;33502;-42
2020/12/05 06:04:43;;;;;;;37.65;20.00;;;;;;;6.81;71.86;99334.06;4307924;33;33283;-43
2020/12/05 06:07:14;;;;;;;38.00;19.10;;;;;;;7.09;70.65;99333.06;4296352;33;34971;-44
2020/12/05 06:09:47;;;;;;;39.15;20.90;;;;;;;6.75;72.00;99328.19;4297949;33;35039;-43
2020/12/05 06:12:24;;;;;;;36.63;19.62;;;;;;;6.70;72.66;99332.75;4311771;33;33384;-44
2020/12/05 06:14:53;;;;;;;37.45;19.95;;;;;;;6.78;71.88;99328.06;4300940;33;33574;-44
2020/12/05 06:17:24;;;;;;;40.92;21.62;;;;;;;6.90;71.31;99325.88;4301461;33;35687;-46
2020/12/05 06:19:53;;;;;;;39.38;20.35;;;;;;;6.60;72.15;99330.44;4299052;33;35464;-47
2020/12/05 06:22:39;;;;;;;34.72;20.10;;;;;;;6.34;73.58;99341.81;4300130;33;33334;-44
2020/12/05 06:25:11;;;;;;;39.28;20.98;;;;;;;6.86;71.89;99340.00;4306085;33;34378;-45
2020/12/05 06:27:41;;;;;;;43.05;21.65;;;;;;;6.50;73.28;99336.06;4311655;33;35016;-49
2020/12/05 06:30:10;;;;;;;39.88;21.00;;;;;;;6.55;72.67;99352.47;4297253;33;34247;-51
2020/12/05 06:32:41;;;;;;;35.90;18.50;;;;;;;6.67;72.39;99342.44;4296404;33;33251;-48
2020/12/05 06:35:23;;;;;;;40.50;19.77;;;;;;;6.88;71.70;99350.44;4306623;33;33245;-50
2020/12/05 06:37:54;;;;;;;40.95;21.62;;;;;;;6.74;72.14;99342.19;4368451;32;35577;-48
2020/12/05 06:40:23;;;;;;;35.47;19.03;;;;;;;6.90;71.66;99349.50;4371933;32;34106;-53
2020/12/05 06:42:55;;;;;;;41.53;21.05;;;;;;;6.92;71.39;99347.66;4365295;32;33219;-44
2020/12/05 06:45:25;;;;;;;37.88;22.48;;;;;;;6.54;73.00;99350.78;4371778;32;33484;-43
2020/12/05 06:47:53;;;;;;;43.95;21.45;;;;;;;6.90;71.51;99354.75;4371489;32;35128;-44
2020/12/05 06:50:34;;;;;;;40.58;21.77;;;;;;;6.99;71.18;99352.69;4359488;32;33534;-44
2020/12/05 06:53:02;;;;;;;38.13;22.00;;;;;;;6.63;72.79;99348.69;4367477;32;34027;-45
2020/12/05 06:55:31;;;;;;;38.55;21.45;;;;;;;7.06;71.32;99356.81;4357747;32;33807;-43
2020/12/05 06:58:05;;;;;;;36.72;21.02;;;;;;;6.72;72.59;99365.03;4370504;32;34772;-45
2020/12/05 07:00:37;;;;;;;40.95;21.10;;;;;;;6.66;72.69;99366.09;4372411;32;34092;-43
2020/12/05 07:03:10;;;;;;;37.83;21.23;;;;;;;7.04;71.42;99385.75;4370234;32;33386;-43
2020/12/05 07:05:45;;;;;;;39.13;21.35;;;;;;;6.89;72.33;99373.19;4373716;32;33694;-43
2020/12/05 07:08:20;;;;;;;39.22;21.92;;;;;;;6.89;71.92;99376.66;4361520;32;34545;-44
2020/12/05 07:10:56;;;;;;;35.53;20.48;;;;;;;7.23;70.80;99367.56;4376785;32;34850;-43
2020/12/05 07:13:24;;;;;;;41.72;22.67;;;;;;;7.36;70.46;99374.06;4377278;32;33278;-43
2020/12/05 07:16:10;;;;;;;44.42;22.25;;;;;;;7.14;70.97;99378.41;4375323;32;33536;-43
2020/12/05 07:18:46;;;;;;;37.60;21.62;;;;;;;6.91;72.17;99372.19;4363522;32;34825;-44
2020/12/05 07:21:14;;;;;;;37.50;20.85;;;;;;;6.93;72.29;99378.25;4361641;32;34937;-48
2020/12/05 07:23:42;;;;;;;35.60;20.58;;;;;;;7.10;71.72;99382.88;4374730;32;33583;-43
2020/12/05 07:26:09;;;;;;;37.50;20.70;;;;;;;6.81;72.85;99365.56;4357529;32;33492;-44
2020/12/05 07:28:37;;;;;;;33.60;19.48;;;;;;;7.04;72.04;99366.50;4370970;32;34986;-48
2020/12/05 07:31:05;;;;;;;40.03;20.60;;;;;;;6.90;72.83;99382.75;4372530;32;33612;-47
2020/12/05 07:33:35;;;;;;;40.05;19.75;;;;;;;7.49;70.92;99374.44;4427555;27;33320;-47
2020/12/05 07:36:05;;;;;;;40.00;21.08;;;;;;;7.31;71.57;99385.63;4387349;32;33827;-47
2020/12/05 07:38:34;;;;;;;37.75;20.17;;;;;;;7.45;71.50;99375.47;4386952;32;34841;-49
2020/12/05 07:41:31;;;;;;;36.90;20.00;;;;;;;7.29;71.96;99377.81;4387098;32;34173;-51
2020/12/05 07:44:01;;;;;;;36.08;20.08;;;;;;;7.64;70.65;99371.25;4348416;32;34088;-47
2020/12/05 07:46:28;;;;;;;35.17;19.60;;;;;;;7.24;72.09;99369.25;4345555;32;34265;-45
2020/12/05 07:48:55;;;;;;;34.72;19.98;;;;;;;7.55;71.31;99368.09;4355724;32;34623;-49
2020/12/05 07:54:58;;;;;;;42.75;20.73;;;;;;;7.58;71.20;99379.34;3445452;27;20093;-44
2020/12/05 07:57:29;;;;;;;37.88;19.17;;;;;;;7.71;71.13;99377.13;4407354;32;35623;-48
2020/12/05 08:00:04;;;;;;;33.90;18.77;;;;;;;7.66;71.76;99379.06;4420130;32;34970;-44
2020/12/05 08:02:52;;;;;;;37.75;19.98;;;;;;;7.74;71.31;99378.75;4404164;32;34616;-43
2020/12/05 08:05:44;;;;;;;35.28;19.15;;;;;;;7.76;70.88;99380.41;4407599;32;33485;-44
2020/12/05 08:08:16;;;;;;;36.88;19.40;;;;;;;7.90;70.33;99391.25;4414533;32;34394;-53
2020/12/05 08:10:43;;;;;;;42.95;21.25;;;;;;;7.77;71.43;99400.53;4412742;32;33902;-50
2020/12/05 08:13:26;;;;;;;38.15;20.90;;;;;;;7.89;70.88;99399.22;4417209;32;34272;-44
2020/12/05 08:16:05;;;;;;;41.97;21.52;;;;;;;7.87;70.74;99401.88;4414807;32;32826;-47
2020/12/05 08:18:39;;;;;;;35.75;19.62;;;;;;;8.24;69.79;99392.53;4410802;32;34412;-53
2020/12/05 08:21:07;;;;;;;36.55;20.37;;;;;;;8.20;70.07;99389.16;4398956;32;34886;-47
2020/12/05 08:23:40;;;;;;;33.95;19.23;;;;;;;8.60;69.02;99386.72;4417313;32;34224;-47
2020/12/05 08:26:12;;;;;;;32.70;18.87;;;;;;;8.62;68.75;99387.50;4415463;32;33345;-47
2020/12/05 08:28:41;;;;;;;35.55;19.73;;;;;;;8.11;71.65;99396.56;4408505;32;34472;-51
2020/12/05 08:31:11;;;;;;;30.95;16.75;;;;;;;8.38;70.58;99392.00;4417224;32;34551;-53
2020/12/05 08:33:42;;;;;;;30.05;18.70;;;;;;;8.93;68.47;99382.63;4400320;32;33959;-49
2020/12/05 09:58:32;;;;;;;32.50;17.65;;;;;;;9.11;71.79;99398.53;4444592;32;312840;-48
2020/12/05 10:00:59;;;;;;;32.63;18.40;;;;;;;9.11;71.79;99398.53;4441472;32;33234;-47
2020/12/05 10:03:27;;;;;;;30.02;17.17;;;;;;;9.06;70.78;99396.09;4443408;32;34288;-47
2020/12/05 10:05:54;;;;;;;30.85;17.50;;;;;;;9.59;68.86;99391.97;4443670;32;35581;-51
2020/12/05 10:08:21;;;;;;;27.52;17.95;;;;;;;9.91;67.74;99401.88;4435825;32;34137;-52
2020/12/05 10:10:48;;;;;;;30.65;18.37;;;;;;;10.27;66.60;99398.44;4441345;32;34006;-47
2020/12/05 10:13:15;;;;;;;27.80;16.73;;;;;;;10.39;65.46;99387.25;4442836;32;33505;-47
2020/12/05 10:15:43;;;;;;;29.30;16.05;;;;;;;10.67;64.64;99378.81;4445257;32;35112;-47
2020/12/05 10:18:10;;;;;;;27.77;16.12;;;;;;;10.54;65.02;99387.44;4444287;32;33392;-51
2020/12/05 10:20:37;;;;;;;27.00;16.85;;;;;;;10.67;64.55;99385.88;4442671;32;34259;-48
2020/12/05 10:23:04;;;;;;;26.33;16.02;;;;;;;10.60;64.65;99389.78;4442250;32;33936;-53
2020/12/05 10:25:32;;;;;;;30.27;15.35;;;;;;;10.65;64.71;99387.75;4447544;32;35703;-47
2020/12/05 10:27:59;;;;;;;32.35;16.37;;;;;;;10.65;64.85;99390.41;4445317;32;33749;-54
2020/12/05 10:30:26;;;;;;;28.35;15.55;;;;;;;10.79;64.34;99385.28;4446121;32;33152;-53
2020/12/05 10:32:54;;;;;;;28.48;15.93;;;;;;;10.83;64.03;99381.56;4443873;32;32630;-53
2020/12/05 10:35:21;;;;;;;30.30;17.98;;;;;;;11.00;63.68;99384.16;4445025;32;34834;-53
2020/12/05 10:37:48;;;;;;;27.95;16.20;;;;;;;11.22;62.99;99385.69;4428669;32;34727;-49
2020/12/05 10:40:15;;;;;;;25.45;17.17;;;;;;;11.46;61.82;99378.22;4445944;32;33982;-48
2020/12/05 10:42:42;;;;;;;28.12;17.27;;;;;;;11.35;62.61;99384.09;4433899;32;34022;-46
2020/12/05 10:45:10;;;;;;;32.42;17.12;;;;;;;11.59;61.28;99381.06;4439628;32;35062;-48
2020/12/05 10:47:37;;;;;;;27.87;16.35;;;;;;;11.19;62.68;99378.75;4427199;32;34026;-50
2020/12/05 10:50:04;;;;;;;27.30;15.32;;;;;;;11.67;61.08;99377.06;4445486;32;34345;-52
2020/12/05 10:52:31;;;;;;;28.45;16.55;;;;;;;11.61;61.34;99376.53;4433079;32;33769;-47
2020/12/05 10:54:59;;;;;;;29.02;16.15;;;;;;;11.53;61.70;99377.81;4441832;32;34988;-48
2020/12/05 10:57:27;;;;;;;28.75;17.60;;;;;;;11.75;61.21;99379.28;4435665;32;34713;-44
2020/12/05 10:59:54;;;;;;;25.83;15.88;;;;;;;11.43;62.54;99376.59;4437688;32;33374;-47
2020/12/05 11:02:22;;;;;;;27.58;16.35;;;;;;;11.59;62.00;99375.78;4442143;32;34544;-47
2020/12/05 11:04:49;;;;;;;26.12;15.25;;;;;;;11.38;62.22;99362.78;4438252;32;35088;-50
2020/12/05 11:07:16;;;;;;;25.10;16.23;;;;;;;11.56;61.75;99371.50;4431930;32;35208;-50
2020/12/05 11:09:44;;;;;;;24.45;16.33;;;;;;;11.29;62.67;99369.41;4412320;32;33644;-48
2020/12/05 11:12:11;;;;;;;27.35;16.65;;;;;;;11.54;62.01;99368.09;4423353;32;34031;-50
2020/12/05 11:14:38;;;;;;;25.27;15.75;;;;;;;11.78;60.95;99365.91;4428670;32;35817;-49
2020/12/05 11:17:05;;;;;;;30.33;16.05;;;;;;;11.64;61.62;99363.16;4432088;32;33931;-49
2020/12/05 11:19:32;;;;;;;28.58;17.35;;;;;;;11.81;61.02;99365.72;4439494;32;33460;-49
2020/12/05 11:22:00;;;;;;;25.33;15.43;;;;;;;11.77;61.47;99370.34;4439295;32;33391;-47
2020/12/05 11:24:28;;;;;;;31.80;16.02;;;;;;;11.61;61.56;99361.53;4438936;32;35628;-48
2020/12/05 11:26:55;;;;;;;26.37;15.88;;;;;;;11.60;61.96;99358.97;4439253;32;34749;-50
2020/12/05 11:29:22;;;;;;;25.15;16.42;;;;;;;11.58;62.36;99356.41;4439285;32;33068;-51
2020/12/05 11:31:50;;;;;;;27.45;16.00;;;;;;;11.40;62.56;99355.63;4439124;32;34035;-49
2020/12/05 11:34:17;;;;;;;28.08;15.48;;;;;;;11.36;62.77;99359.38;4439044;32;35080;-50
2020/12/05 11:36:44;;;;;;;23.35;14.75;;;;;;;11.49;62.45;99359.56;4439109;32;34653;-48
2020/12/05 11:39:12;;;;;;;26.67;16.85;;;;;;;11.60;62.17;99357.19;4429204;32;33282;-49
2020/12/05 11:41:39;;;;;;;27.55;15.75;;;;;;;11.74;61.82;99364.38;4427060;32;34750;-49
2020/12/05 11:44:07;;;;;;;25.95;15.82;;;;;;;11.82;61.35;99364.84;4406767;32;34792;-52
2020/12/05 11:46:34;;;;;;;26.85;15.25;;;;;;;11.64;62.02;99365.81;4420072;27;35432;-44
2020/12/05 11:49:02;;;;;;;24.73;15.20;;;;;;;11.59;62.36;99365.22;4435250;32;34166;-50
2020/12/05 11:51:29;;;;;;;25.60;16.08;;;;;;;11.33;63.23;99364.81;4424845;32;34448;-49
2020/12/05 11:53:57;;;;;;;27.20;17.20;;;;;;;11.76;62.09;99367.75;4410467;32;37529;-50
2020/12/05 11:56:24;;;;;;;28.55;16.52;;;;;;;11.83;61.73;99365.69;4424993;32;34144;-41
2020/12/05 11:58:52;;;;;;;27.17;16.52;;;;;;;11.69;62.45;99366.41;4441410;32;33808;-42
2020/12/05 12:01:19;;;;;;;27.58;16.40;;;;;;;12.15;61.17;99355.91;4433632;32;33668;-41
2020/12/05 12:03:47;;;;;;;23.45;15.48;;;;;;;12.33;60.37;99356.66;4440817;32;35756;-41
2020/12/05 12:06:15;;;;;;;28.70;17.33;;;;;;;11.96;61.37;99370.19;4441716;32;34242;-41
2020/12/05 12:08:44;;;;;;;25.52;16.48;;;;;;;12.09;60.83;99353.63;4454772;32;33578;-45
2020/12/05 12:11:19;;;;;;;26.90;16.12;;;;;;;12.12;60.93;99361.37;4431416;32;34576;-46
2020/12/05 12:13:47;;;;;;;25.17;16.65;;;;;;;12.16;60.81;99354.97;4442400;32;34710;-47
2020/12/05 12:16:15;;;;;;;27.42;15.73;;;;;;;12.14;61.07;99357.69;4437632;32;34517;-43
2020/12/05 12:18:45;;;;;;;28.98;16.98;;;;;;;11.90;61.73;99365.22;4448261;32;33598;-42
2020/12/05 12:21:12;;;;;;;36.30;17.35;;;;;;;11.84;62.06;99364.72;4418018;32;34569;-42
2020/12/05 12:23:40;;;;;;;27.05;16.52;;;;;;;11.73;62.69;99373.25;4442023;32;35595;-41
2020/12/05 12:26:07;;;;;;;28.42;16.30;;;;;;;11.97;61.49;99369.25;4421676;32;34570;-41
2020/12/05 12:28:34;;;;;;;28.77;17.30;;;;;;;11.92;61.94;99363.38;4443682;32;32812;-44
2020/12/05 12:31:01;;;;;;;28.38;16.65;;;;;;;12.02;61.71;99364.56;4449805;32;32924;-41
2020/12/05 12:33:29;;;;;;;29.55;16.30;;;;;;;12.28;60.85;99360.41;4441950;32;35067;-41
2020/12/05 12:35:56;;;;;;;25.58;16.73;;;;;;;12.45;60.63;99364.75;4443533;32;34291;-43
2020/12/05 12:38:25;;;;;;;25.90;15.65;;;;;;;12.59;60.46;99363.09;4447908;32;34104;-43
2020/12/05 12:40:53;;;;;;;27.73;15.80;;;;;;;12.68;60.81;99363.41;4447529;32;33645;-41
2020/12/05 12:43:20;;;;;;;31.02;17.42;;;;;;;12.89;59.58;99355.09;4446618;32;34695;-41
2020/12/05 12:45:48;;;;;;;29.70;16.30;;;;;;;12.70;59.68;99360.63;4447553;32;33780;-42
2020/12/05 12:50:50;;;;;;;26.35;16.62;;;;;;;12.77;60.12;99351.38;4433167;32;34871;-42
2020/12/05 12:53:17;;;;;;;30.42;16.75;;;;;;;12.78;60.11;99347.81;4435547;32;34168;-43
2020/12/05 12:55:48;;;;;;;23.92;15.57;;;;;;;12.95;59.66;99355.56;4432084;32;34500;-41
2020/12/05 13:00:54;;;;;;;27.52;17.52;;;;;;;12.69;60.71;99358.94;4431504;32;33855;-41
2020/12/05 13:03:22;;;;;;;27.15;17.45;;;;;;;12.65;60.84;99357.41;4428326;32;34990;-41
2020/12/05 13:05:50;;;;;;;25.37;15.48;;;;;;;12.27;61.78;99352.56;4429570;32;33671;-41
2020/12/05 13:08:17;;;;;;;24.80;15.57;;;;;;;12.76;60.76;99355.81;4429449;32;33440;-41